Terminal Aerodrome Forecast
Issued by NWS

Home | Current Version | Previous Version | Text Only | Print | Product List | Glossary On
Versions: 1 2 3 4 5 6 7 8 9 10 11 12 13 14 15 16
000
FTUS42 KMLB 180529
TAFSFB
TAF
KSFB 180529Z 1806/1906 VRB03KT P6SM SCT250
     FM181500 19004KT P6SM SCT030
     FM181900 16007KT P6SM VCTS SCT045CB BKN150
     FM190000 15005KT P6SM FEW040 BKN250=

USA.gov is the U.S. government's official web portal to all federal, state and local government web resources and services.